createdAt,value
2017-07-17T00:02:48.877Z,0
2017-07-17T00:12:48.859Z,0
2017-07-17T00:22:48.930Z,0
2017-07-17T00:32:48.883Z,0
2017-07-17T00:42:48.873Z,0
2017-07-17T00:52:48.874Z,0
2017-07-17T01:02:48.975Z,0
2017-07-17T01:12:48.856Z,0
2017-07-17T01:22:48.984Z,0
2017-07-17T01:32:49.018Z,0
2017-07-17T01:42:48.885Z,0
2017-07-17T01:52:48.984Z,0
2017-07-17T02:02:48.862Z,0
2017-07-17T02:12:48.902Z,0
2017-07-17T02:22:48.879Z,0
2017-07-17T02:32:48.861Z,0
2017-07-17T02:42:49.897Z,0
2017-07-17T02:52:49.173Z,0
2017-07-17T03:02:48.871Z,0
2017-07-17T03:12:48.877Z,0
2017-07-17T03:22:48.925Z,0
2017-07-17T03:32:48.986Z,0
2017-07-17T03:42:48.947Z,0
2017-07-17T03:52:48.894Z,0
2017-07-17T04:02:48.893Z,5
2017-07-17T04:12:48.924Z,5
2017-07-17T04:22:48.879Z,20
2017-07-17T04:32:49.977Z,30
2017-07-17T04:42:48.890Z,40
2017-07-17T04:52:48.883Z,50
2017-07-17T05:02:48.888Z,100
2017-07-17T05:12:48.889Z,160
2017-07-17T05:22:48.994Z,140
2017-07-17T05:32:48.917Z,110
2017-07-17T05:42:48.896Z,130
2017-07-17T05:52:48.882Z,140
2017-07-17T06:02:48.897Z,125
2017-07-17T06:12:49.029Z,200
2017-07-17T06:22:48.887Z,190
2017-07-17T06:32:48.896Z,185
2017-07-17T06:42:48.899Z,360
2017-07-17T06:52:48.889Z,450
2017-07-17T07:02:49.263Z,325
2017-07-17T07:12:48.959Z,365
2017-07-17T07:22:48.950Z,415
2017-07-17T07:32:48.951Z,375
2017-07-17T07:42:48.957Z,390
2017-07-17T07:52:48.915Z,425
2017-07-17T08:02:48.987Z,460
2017-07-17T08:12:49.086Z,200
2017-07-17T08:22:48.909Z,275
2017-07-17T08:32:48.928Z,365
2017-07-17T08:42:48.925Z,395
2017-07-17T08:52:48.950Z,385
2017-07-17T09:02:48.950Z,245
2017-07-17T09:12:48.966Z,165
2017-07-17T09:22:48.952Z,140
2017-07-17T09:32:49.006Z,135
2017-07-17T09:42:49.008Z,140
2017-07-17T09:52:48.963Z,130
2017-07-17T10:02:48.947Z,115
2017-07-17T10:12:48.968Z,135
2017-07-17T10:22:48.979Z,115
2017-07-17T10:32:48.986Z,120
2017-07-17T10:42:48.967Z,120
2017-07-17T10:52:48.965Z,125
2017-07-17T11:02:48.975Z,125
2017-07-17T11:12:49.039Z,120
2017-07-17T11:22:48.974Z,115
2017-07-17T11:32:48.709Z,115
2017-07-17T11:42:49.005Z,115
2017-07-17T12:02:48.888Z,115
2017-07-17T12:12:48.967Z,115
2017-07-17T12:22:49.105Z,110
2017-07-17T12:32:48.934Z,110
2017-07-17T12:42:48.907Z,110
2017-07-17T12:52:48.960Z,110
2017-07-17T13:02:48.970Z,105
2017-07-17T13:12:48.976Z,100
2017-07-17T13:22:48.947Z,100
2017-07-17T13:32:48.977Z,100
2017-07-17T13:42:48.994Z,100
2017-07-17T13:52:49.055Z,100
2017-07-17T14:02:48.991Z,100
2017-07-17T14:12:48.980Z,100
2017-07-17T14:22:49.016Z,100
2017-07-17T14:32:49.023Z,105
2017-07-17T14:42:51.371Z,110
2017-07-17T14:52:49.193Z,110
2017-07-17T15:02:48.992Z,100
2017-07-17T15:12:48.965Z,100
2017-07-17T15:22:49.005Z,100
2017-07-17T15:32:49.042Z,95
2017-07-17T15:42:49.006Z,95
2017-07-17T15:52:49.050Z,95
2017-07-17T16:02:49.049Z,95
2017-07-17T16:12:49.045Z,90
2017-07-17T16:22:48.955Z,90
2017-07-17T16:32:49.134Z,85
2017-07-17T16:42:51.056Z,85
2017-07-17T16:52:49.002Z,80
2017-07-17T17:02:49.026Z,75
2017-07-17T17:12:49.106Z,75
2017-07-17T17:22:49.166Z,75
2017-07-17T17:32:49.910Z,70
2017-07-17T17:42:49.013Z,70
2017-07-17T17:52:48.968Z,65
2017-07-17T18:02:49.121Z,60
2017-07-17T18:12:49.048Z,55
2017-07-17T18:22:49.078Z,50
2017-07-17T18:32:50.115Z,45
2017-07-17T18:42:49.005Z,35
2017-07-17T18:52:49.018Z,30
2017-07-17T19:02:49.046Z,20
2017-07-17T19:12:49.026Z,15
2017-07-17T19:22:49.093Z,10
2017-07-17T19:32:49.155Z,5
2017-07-17T19:42:49.075Z,0
2017-07-17T19:52:49.032Z,0
2017-07-17T20:02:49.053Z,0
2017-07-17T20:12:49.087Z,0
2017-07-17T20:22:49.080Z,0
2017-07-17T20:32:49.042Z,0
2017-07-17T20:42:49.221Z,0
2017-07-17T20:52:49.256Z,0
2017-07-17T21:02:49.145Z,0
2017-07-17T21:12:49.030Z,0
2017-07-17T21:22:49.479Z,0
2017-07-17T21:32:49.084Z,0
2017-07-17T21:42:49.001Z,0
2017-07-17T21:52:49.412Z,0
2017-07-17T22:02:49.115Z,0
2017-07-17T22:12:48.994Z,0
2017-07-17T22:22:48.987Z,0
2017-07-17T22:32:48.988Z,0
2017-07-17T22:42:49.052Z,0
2017-07-17T22:52:49.265Z,0
2017-07-17T23:02:49.005Z,0
2017-07-17T23:12:49.012Z,0
2017-07-17T23:22:49.023Z,0
2017-07-17T23:32:49.031Z,0
2017-07-17T23:42:49.233Z,0
2017-07-17T23:52:48.967Z,0
